createdAt,value
2022-10-15T00:01:53.727Z,73.79
2022-10-15T00:04:22.712Z,74.07
2022-10-15T00:06:51.843Z,74.74
2022-10-15T00:09:20.772Z,74.66
2022-10-15T00:11:49.955Z,74.41
2022-10-15T00:14:19.339Z,74.20
2022-10-15T00:16:48.564Z,74.97
2022-10-15T00:19:17.453Z,73.87
2022-10-15T00:21:46.813Z,74.45
2022-10-15T00:24:15.757Z,74.47
2022-10-15T00:26:45.006Z,74.43
2022-10-15T00:29:14.300Z,74.22
2022-10-15T00:31:43.696Z,73.93
2022-10-15T00:34:14.512Z,73.17
2022-10-15T00:36:43.727Z,73.70
2022-10-15T00:39:12.656Z,73.31
2022-10-15T00:41:46.130Z,73.66
2022-10-15T00:44:27.596Z,73.61
2022-10-15T00:47:18.864Z,73.89
2022-10-15T00:50:02.805Z,74.07
2022-10-15T00:52:59.379Z,74.00
2022-10-15T00:55:35.060Z,73.69
2022-10-15T00:58:18.004Z,73.69
2022-10-15T01:00:47.381Z,73.84
2022-10-15T01:03:18.990Z,73.66
2022-10-15T01:05:51.149Z,74.10
2022-10-15T01:08:23.008Z,74.33
2022-10-15T01:11:03.095Z,73.35
2022-10-15T01:14:02.891Z,73.62
2022-10-15T01:17:10.330Z,73.13
2022-10-15T01:20:05.660Z,73.28
2022-10-15T01:22:48.997Z,73.55
2022-10-15T01:25:39.873Z,73.71
2022-10-15T01:28:45.120Z,74.84
2022-10-15T01:31:38.017Z,74.62
2022-10-15T01:37:10.636Z,76.19
2022-10-15T01:39:49.498Z,76.48
2022-10-15T01:42:28.233Z,76.87
2022-10-15T01:45:08.320Z,77.32
2022-10-15T01:47:58.485Z,77.52
2022-10-15T01:50:32.938Z,76.95
2022-10-15T01:53:06.398Z,76.85
2022-10-15T01:55:38.707Z,77.15
2022-10-15T01:58:12.256Z,77.41
2022-10-15T02:00:46.215Z,78.46
2022-10-15T02:03:17.230Z,78.40
2022-10-15T02:06:08.087Z,78.33
2022-10-15T02:08:57.151Z,78.30
2022-10-15T02:11:28.137Z,78.90
2022-10-15T02:14:21.137Z,78.83
2022-10-15T02:17:12.728Z,79.47
2022-10-15T02:20:01.759Z,79.59
2022-10-15T02:22:58.023Z,79.48
2022-10-15T02:25:29.779Z,79.97
2022-10-15T02:28:05.085Z,79.64
2022-10-15T02:30:40.153Z,79.62
2022-10-15T02:33:14.534Z,77.44
2022-10-15T02:35:47.543Z,77.54
2022-10-15T02:38:21.525Z,76.82
2022-10-15T02:40:53.158Z,77.28
2022-10-15T02:43:24.358Z,73.71
2022-10-15T02:45:54.424Z,73.54
2022-10-15T02:48:25.137Z,72.56
2022-10-15T02:50:56.808Z,69.47
2022-10-15T02:53:27.985Z,68.47
2022-10-15T02:55:58.985Z,66.94
2022-10-15T02:58:31.025Z,66.81
2022-10-15T03:01:02.221Z,67.09
2022-10-15T03:03:33.783Z,66.16
2022-10-15T03:06:04.585Z,66.00
2022-10-15T03:08:35.335Z,63.71
2022-10-15T03:11:08.052Z,63.04
2022-10-15T03:13:41.556Z,62.44
2022-10-15T03:16:13.733Z,62.14
2022-10-15T03:18:46.629Z,61.30
2022-10-15T03:21:18.710Z,61.03
2022-10-15T03:23:49.515Z,61.37
2022-10-15T03:26:25.437Z,60.25
2022-10-15T03:28:57.161Z,59.69
2022-10-15T03:31:39.128Z,59.61
2022-10-15T03:34:11.260Z,57.87
2022-10-15T03:36:42.237Z,57.84
2022-10-15T03:39:15.277Z,57.43
2022-10-15T03:41:46.253Z,57.21
2022-10-15T03:44:25.029Z,57.16
2022-10-15T03:47:06.406Z,56.48
2022-10-15T03:49:45.755Z,56.54
2022-10-15T03:52:16.770Z,56.52
2022-10-15T03:54:48.470Z,55.19
2022-10-15T03:57:22.613Z,55.84
2022-10-15T04:00:02.507Z,55.85
2022-10-15T04:02:42.184Z,56.12
2022-10-15T04:05:25.179Z,56.35
2022-10-15T04:08:01.618Z,55.41
2022-10-15T04:10:35.336Z,55.50
2022-10-15T04:13:05.965Z,54.96
2022-10-15T04:15:41.197Z,54.51
2022-10-15T04:18:15.267Z,55.25
2022-10-15T04:20:46.716Z,54.27
2022-10-15T04:23:22.649Z,54.75
2022-10-15T04:26:11.165Z,54.78
2022-10-15T04:28:41.575Z,54.95
2022-10-15T04:31:11.851Z,53.16
2022-10-15T04:33:41.887Z,53.20
2022-10-15T04:36:15.071Z,52.71
2022-10-15T04:39:06.917Z,52.41
2022-10-15T04:41:41.969Z,51.94
2022-10-15T04:44:14.891Z,51.96
2022-10-15T04:46:50.241Z,51.98
2022-10-15T04:49:30.277Z,51.94
2022-10-15T04:52:00.498Z,52.16
2022-10-15T04:54:38.858Z,52.30
2022-10-15T04:57:08.826Z,52.56
2022-10-15T04:59:37.812Z,51.85
2022-10-15T05:02:25.178Z,51.32
2022-10-15T05:05:11.010Z,51.78
2022-10-15T05:07:50.146Z,50.79
2022-10-15T05:10:19.301Z,49.96
2022-10-15T05:12:50.404Z,49.87
2022-10-15T05:15:29.766Z,50.33
2022-10-15T05:17:59.111Z,50.91
2022-10-15T05:20:36.705Z,50.20
2022-10-15T05:23:07.270Z,50.09
2022-10-15T05:25:37.801Z,50.39
2022-10-15T05:28:07.432Z,49.94
2022-10-15T05:30:36.783Z,49.79
2022-10-15T05:33:06.509Z,50.28
2022-10-15T05:35:35.450Z,49.64
2022-10-15T05:38:06.819Z,50.05
2022-10-15T05:40:36.051Z,50.00
2022-10-15T05:43:08.218Z,48.67
2022-10-15T05:45:37.432Z,48.73
2022-10-15T05:48:08.524Z,48.26
2022-10-15T05:50:38.316Z,48.84
2022-10-15T05:53:11.301Z,47.65
2022-10-15T05:55:44.188Z,48.53
2022-10-15T05:58:13.576Z,48.40
2022-10-15T06:00:42.537Z,48.55
2022-10-15T06:03:15.940Z,47.83
2022-10-15T06:05:45.089Z,48.12
2022-10-15T06:08:14.531Z,48.15
2022-10-15T06:10:43.921Z,48.41
2022-10-15T06:13:13.738Z,46.83
2022-10-15T06:15:46.705Z,46.76
2022-10-15T06:18:18.993Z,46.11
2022-10-15T06:20:54.194Z,46.57
2022-10-15T06:23:25.490Z,46.59
2022-10-15T06:25:54.727Z,47.02
2022-10-15T06:28:24.273Z,46.69
2022-10-15T06:30:53.820Z,46.23
2022-10-15T06:33:22.764Z,45.43
2022-10-15T06:35:51.899Z,44.85
2022-10-15T06:38:20.741Z,44.62
2022-10-15T06:40:49.940Z,45.13
2022-10-15T06:43:18.911Z,44.04
2022-10-15T06:45:48.093Z,43.35
2022-10-15T06:48:19.110Z,41.42
2022-10-15T06:50:48.466Z,41.38
2022-10-15T06:53:17.812Z,41.63
2022-10-15T06:55:47.298Z,42.11
2022-10-15T06:58:16.119Z,41.67
2022-10-15T07:00:45.272Z,41.66
2022-10-15T07:03:14.335Z,41.96
2022-10-15T07:05:43.655Z,40.90
2022-10-15T07:08:16.852Z,42.79
2022-10-15T07:10:49.141Z,42.22
2022-10-15T07:13:18.392Z,42.45
2022-10-15T07:15:48.284Z,41.89
2022-10-15T07:18:18.111Z,42.30
2022-10-15T07:20:47.511Z,41.17
2022-10-15T07:23:16.868Z,40.13
2022-10-15T07:25:45.950Z,39.63
2022-10-15T07:28:15.199Z,38.38
2022-10-15T07:30:44.137Z,37.56
2022-10-15T07:33:13.392Z,39.10
2022-10-15T07:35:52.460Z,38.02
2022-10-15T07:38:21.846Z,38.11
2022-10-15T07:40:50.737Z,38.41
2022-10-15T07:43:19.986Z,38.66
2022-10-15T07:45:50.629Z,39.20
2022-10-15T07:48:19.968Z,40.17
2022-10-15T07:50:48.882Z,40.03
2022-10-15T07:53:20.529Z,39.90
2022-10-15T07:55:59.789Z,39.72
2022-10-15T07:58:35.648Z,39.38
2022-10-15T08:01:05.766Z,37.06
2022-10-15T08:03:37.053Z,37.58
2022-10-15T08:06:08.432Z,37.02
2022-10-15T08:08:38.793Z,38.14
2022-10-15T08:11:09.919Z,38.35
2022-10-15T08:13:42.497Z,37.67
2022-10-15T08:16:13.572Z,38.45
2022-10-15T08:18:49.083Z,38.75
2022-10-15T08:21:18.305Z,38.50
2022-10-15T08:23:47.313Z,36.91
2022-10-15T08:26:16.594Z,37.62
2022-10-15T08:28:45.769Z,36.50
2022-10-15T08:31:15.787Z,35.74
2022-10-15T08:33:47.073Z,35.54
2022-10-15T08:36:17.187Z,35.34
2022-10-15T08:38:46.736Z,35.20
2022-10-15T08:41:39.246Z,34.87
2022-10-15T08:44:15.481Z,35.48
2022-10-15T08:46:50.540Z,35.95
2022-10-15T08:49:36.405Z,36.84
2022-10-15T08:52:17.232Z,35.69
2022-10-15T08:54:46.403Z,36.60
2022-10-15T08:57:47.409Z,35.76
2022-10-15T09:00:37.241Z,37.19
2022-10-15T09:03:27.259Z,35.89
2022-10-15T09:06:05.049Z,35.98
2022-10-15T09:09:04.943Z,35.63
2022-10-15T09:11:54.899Z,35.83
2022-10-15T09:14:34.802Z,37.10
2022-10-15T09:17:09.233Z,36.87
2022-10-15T09:19:39.609Z,37.68
2022-10-15T09:22:16.230Z,36.63
2022-10-15T09:24:47.354Z,36.82
2022-10-15T09:27:29.965Z,36.62
2022-10-15T09:30:24.470Z,36.92
2022-10-15T09:33:01.757Z,36.94
2022-10-15T09:35:38.536Z,37.52
2022-10-15T09:38:28.612Z,37.54
2022-10-15T09:41:20.678Z,37.03
2022-10-15T09:43:52.868Z,37.46
2022-10-15T09:46:24.267Z,38.26
2022-10-15T09:49:10.535Z,39.09
2022-10-15T09:51:56.474Z,38.01
2022-10-15T09:54:26.720Z,38.18
2022-10-15T09:56:58.253Z,38.19
2022-10-15T09:59:28.226Z,38.58
2022-10-15T10:02:04.905Z,38.19
2022-10-15T10:04:38.079Z,38.29
2022-10-15T10:07:09.425Z,37.70
2022-10-15T10:09:54.931Z,37.95
2022-10-15T10:12:29.525Z,37.75
2022-10-15T10:15:02.809Z,37.67
2022-10-15T10:17:35.122Z,38.62
2022-10-15T10:20:16.903Z,37.50
2022-10-15T10:22:56.012Z,37.52
2022-10-15T10:25:27.949Z,37.19
2022-10-15T10:28:15.459Z,37.88
2022-10-15T10:31:04.579Z,38.73
2022-10-15T10:33:51.724Z,38.16
2022-10-15T10:36:42.030Z,38.12
2022-10-15T10:39:16.492Z,37.59
2022-10-15T10:41:59.654Z,38.63
2022-10-15T10:44:40.417Z,38.81
2022-10-15T10:47:16.684Z,39.38
2022-10-15T10:49:56.884Z,38.33
2022-10-15T10:52:26.077Z,38.17
2022-10-15T10:55:15.282Z,38.38
2022-10-15T10:57:46.701Z,39.15
2022-10-15T11:00:25.312Z,39.05
2022-10-15T11:02:55.249Z,39.15
2022-10-15T11:05:29.978Z,39.74
2022-10-15T11:08:17.564Z,39.91
2022-10-15T11:10:54.200Z,39.47
2022-10-15T11:13:34.112Z,40.18
2022-10-15T11:16:11.209Z,40.52
2022-10-15T11:19:18.902Z,40.61
2022-10-15T11:22:24.241Z,40.60
2022-10-15T11:25:22.324Z,39.44
2022-10-15T11:28:10.466Z,40.53
2022-10-15T11:30:42.723Z,40.08
2022-10-15T11:33:23.744Z,40.17
2022-10-15T11:36:25.116Z,40.80
2022-10-15T11:39:15.985Z,41.62
2022-10-15T11:41:59.711Z,42.02
2022-10-15T11:44:51.251Z,41.70
2022-10-15T11:47:41.401Z,41.96
2022-10-15T11:50:25.188Z,42.55
2022-10-15T11:53:14.670Z,42.71
2022-10-15T11:56:06.603Z,43.23
2022-10-15T11:58:44.875Z,43.26
2022-10-15T12:01:20.956Z,43.36
2022-10-15T12:04:05.270Z,43.33
2022-10-15T12:06:42.361Z,43.89
2022-10-15T12:09:16.926Z,44.22
2022-10-15T12:12:06.884Z,44.40
2022-10-15T12:14:52.690Z,44.45
2022-10-15T12:17:44.960Z,44.82
2022-10-15T12:20:17.112Z,44.96
2022-10-15T12:22:49.316Z,45.17
2022-10-15T12:25:54.960Z,45.10
2022-10-15T12:29:03.186Z,45.85
2022-10-15T12:31:54.598Z,46.46
2022-10-15T12:34:42.468Z,47.12
2022-10-15T12:37:20.438Z,47.07
2022-10-15T12:40:00.878Z,47.07
2022-10-15T12:42:34.266Z,49.31
2022-10-15T12:45:10.051Z,49.36
2022-10-15T12:47:57.224Z,50.70
2022-10-15T12:50:32.223Z,51.94
2022-10-15T12:53:30.895Z,50.43
2022-10-15T12:56:12.221Z,50.22
2022-10-15T12:58:45.277Z,50.17
2022-10-15T13:01:17.446Z,50.29
2022-10-15T13:03:52.697Z,50.86
2022-10-15T13:06:22.071Z,53.50
2022-10-15T13:09:17.921Z,54.60
2022-10-15T13:12:01.481Z,54.88
2022-10-15T13:14:37.107Z,54.95
2022-10-15T13:17:21.275Z,54.24
2022-10-15T13:20:28.004Z,54.09
2022-10-15T13:23:28.980Z,55.37
2022-10-15T13:26:13.910Z,55.62
2022-10-15T13:28:44.861Z,54.04
2022-10-15T13:31:30.343Z,55.34
2022-10-15T13:34:05.878Z,55.76
2022-10-15T13:36:36.492Z,54.74
2022-10-15T13:39:09.182Z,54.32
2022-10-15T13:41:43.098Z,55.36
2022-10-15T13:44:24.020Z,56.01
2022-10-15T13:46:53.208Z,58.13
2022-10-15T13:49:23.190Z,59.25
2022-10-15T13:51:56.410Z,59.67
2022-10-15T13:54:30.169Z,59.30
2022-10-15T13:57:03.029Z,58.21
2022-10-15T13:59:33.431Z,57.49
2022-10-15T14:02:05.325Z,58.58
2022-10-15T14:04:35.281Z,58.52
2022-10-15T14:07:25.208Z,58.37
2022-10-15T14:09:54.792Z,59.05
2022-10-15T14:12:24.721Z,59.62
2022-10-15T14:14:54.012Z,59.81
2022-10-15T14:17:27.192Z,60.49
2022-10-15T14:20:27.314Z,60.27
2022-10-15T14:22:56.620Z,59.77
2022-10-15T14:25:27.119Z,58.72
2022-10-15T14:27:56.931Z,57.84
2022-10-15T14:30:33.116Z,59.06
2022-10-15T14:33:03.325Z,59.16
2022-10-15T14:35:39.611Z,60.12
2022-10-15T14:38:11.693Z,61.49
2022-10-15T14:40:40.967Z,61.92
2022-10-15T14:43:18.731Z,61.09
2022-10-15T14:45:54.001Z,61.24
2022-10-15T14:48:35.477Z,60.68
2022-10-15T14:51:08.346Z,60.06
2022-10-15T14:53:40.515Z,60.55
2022-10-15T14:56:20.508Z,59.74
2022-10-15T14:58:53.399Z,60.62
2022-10-15T15:01:22.861Z,61.91
2022-10-15T15:03:54.706Z,62.72
2022-10-15T15:06:24.110Z,63.26
2022-10-15T15:08:53.163Z,63.67
2022-10-15T15:11:26.910Z,64.30
2022-10-15T15:13:56.574Z,64.74
2022-10-15T15:16:25.407Z,65.37
2022-10-15T15:18:54.528Z,67.23
2022-10-15T15:21:25.422Z,66.71
2022-10-15T15:23:54.648Z,66.63
2022-10-15T15:26:24.716Z,65.79
2022-10-15T15:28:54.197Z,66.08
2022-10-15T15:31:23.060Z,66.16
2022-10-15T15:33:52.325Z,67.58
2022-10-15T15:36:23.697Z,68.20
2022-10-15T15:38:54.520Z,67.02
2022-10-15T15:41:25.894Z,66.91
2022-10-15T15:43:57.934Z,66.75
2022-10-15T15:46:27.368Z,66.80
2022-10-15T15:48:57.956Z,66.94
2022-10-15T15:51:33.060Z,66.41
2022-10-15T15:54:05.552Z,67.31
2022-10-15T15:56:36.126Z,66.98
2022-10-15T15:59:05.260Z,67.45
2022-10-15T16:01:34.396Z,67.05
2022-10-15T16:04:03.632Z,67.05
2022-10-15T16:06:32.594Z,66.12
2022-10-15T16:09:01.838Z,65.25
2022-10-15T16:11:31.042Z,64.41
2022-10-15T16:14:00.716Z,66.31
2022-10-15T16:16:29.576Z,65.72
2022-10-15T16:18:58.871Z,65.77
2022-10-15T16:21:28.651Z,65.82
2022-10-15T16:23:57.821Z,65.92
2022-10-15T16:26:27.655Z,66.41
2022-10-15T16:28:57.645Z,65.25
2022-10-15T16:31:30.533Z,66.69
2022-10-15T16:34:00.256Z,65.99
2022-10-15T16:36:29.461Z,65.72
2022-10-15T16:38:58.528Z,65.76
2022-10-15T16:41:27.897Z,66.22
2022-10-15T16:43:56.896Z,66.85
2022-10-15T16:46:26.038Z,67.03
2022-10-15T16:48:57.256Z,67.41
2022-10-15T16:51:27.014Z,67.87
2022-10-15T16:53:56.199Z,68.01
2022-10-15T16:56:27.976Z,68.19
2022-10-15T16:58:58.270Z,68.59
2022-10-15T17:01:30.492Z,68.77
2022-10-15T17:04:01.043Z,69.06
2022-10-15T17:06:32.216Z,69.00
2022-10-15T17:09:05.115Z,69.03
2022-10-15T17:11:40.389Z,68.18
2022-10-15T17:14:15.343Z,68.10
2022-10-15T17:16:53.179Z,68.56
2022-10-15T17:19:30.245Z,67.94
2022-10-15T17:22:02.626Z,68.45
2022-10-15T17:24:31.533Z,68.12
2022-10-15T17:27:00.713Z,68.62
2022-10-15T17:29:33.351Z,67.51
2022-10-15T17:32:03.943Z,67.00
2022-10-15T17:34:33.267Z,66.69
2022-10-15T17:37:03.042Z,66.80
2022-10-15T17:39:32.613Z,66.24
2022-10-15T17:42:01.618Z,65.83
2022-10-15T17:44:30.963Z,66.06
2022-10-15T17:46:59.863Z,66.33
2022-10-15T17:49:30.128Z,66.29
2022-10-15T17:51:59.281Z,65.70
2022-10-15T17:54:28.151Z,65.78
2022-10-15T17:56:57.548Z,67.16
2022-10-15T17:59:26.438Z,65.94
2022-10-15T18:01:59.972Z,66.54
2022-10-15T18:04:32.553Z,65.74
2022-10-15T18:07:01.647Z,66.11
2022-10-15T18:09:30.494Z,66.93
2022-10-15T18:12:01.579Z,66.66
2022-10-15T18:14:32.932Z,65.51
2022-10-15T18:17:02.189Z,67.43
2022-10-15T18:19:31.362Z,67.47
2022-10-15T18:22:00.579Z,66.68
2022-10-15T18:24:29.649Z,66.59
2022-10-15T18:27:01.031Z,67.66
2022-10-15T18:29:30.178Z,67.46
2022-10-15T18:31:59.080Z,67.85
2022-10-15T18:34:31.427Z,67.80
2022-10-15T18:37:01.313Z,68.24
2022-10-15T18:39:30.398Z,69.64
2022-10-15T18:41:59.523Z,69.90
2022-10-15T18:44:30.261Z,70.83
2022-10-15T18:46:59.455Z,69.67
2022-10-15T18:49:31.177Z,68.96
2022-10-15T18:52:06.465Z,68.97
2022-10-15T18:54:45.227Z,68.39
2022-10-15T18:57:14.345Z,68.56
2022-10-15T18:59:43.504Z,68.32
2022-10-15T19:02:12.398Z,69.10
2022-10-15T19:04:41.806Z,69.39
2022-10-15T19:07:10.914Z,69.13
2022-10-15T19:09:39.983Z,69.72
2022-10-15T19:12:09.530Z,69.08
2022-10-15T19:14:38.684Z,68.38
2022-10-15T19:17:08.842Z,68.04
2022-10-15T19:19:39.797Z,67.69
2022-10-15T19:22:08.953Z,68.40
2022-10-15T19:24:37.938Z,69.46
2022-10-15T19:29:36.719Z,70.16
2022-10-15T19:32:06.103Z,71.11
2022-10-15T19:34:36.545Z,71.58
2022-10-15T19:37:05.851Z,71.43
2022-10-15T19:39:38.036Z,71.48
2022-10-15T19:42:09.748Z,71.51
2022-10-15T19:44:39.066Z,71.80
2022-10-15T19:47:08.077Z,71.33
2022-10-15T19:49:37.238Z,71.46
2022-10-15T19:52:06.356Z,71.04
2022-10-15T19:54:38.702Z,71.04
2022-10-15T19:57:07.887Z,70.89
2022-10-15T19:59:39.823Z,71.94
2022-10-15T20:02:13.310Z,71.83
2022-10-15T20:04:42.427Z,71.48
2022-10-15T20:07:11.385Z,71.96
2022-10-15T20:09:43.456Z,71.62
2022-10-15T20:12:15.332Z,72.29
2022-10-15T20:14:44.605Z,72.36
2022-10-15T20:17:13.606Z,73.10
2022-10-15T20:19:42.890Z,73.65
2022-10-15T20:22:11.990Z,73.35
2022-10-15T20:24:41.407Z,73.20
2022-10-15T20:27:10.301Z,74.27
2022-10-15T20:29:39.646Z,74.39
2022-10-15T20:32:23.079Z,73.97
2022-10-15T20:34:59.432Z,74.18
2022-10-15T20:37:28.331Z,74.46
2022-10-15T20:42:31.402Z,73.58
2022-10-15T20:45:00.392Z,73.43
2022-10-15T20:47:29.393Z,73.88
2022-10-15T20:49:58.509Z,74.61
2022-10-15T20:52:27.973Z,75.04
2022-10-15T20:54:57.164Z,74.80
2022-10-15T20:57:26.512Z,74.71
2022-10-15T20:59:55.419Z,75.75
2022-10-15T21:02:24.887Z,75.66
2022-10-15T21:04:54.566Z,74.96
2022-10-15T21:07:25.678Z,74.57
2022-10-15T21:09:55.101Z,74.49
2022-10-15T21:12:24.233Z,74.31
2022-10-15T21:14:53.829Z,75.02
2022-10-15T21:17:22.885Z,74.79
2022-10-15T21:19:52.948Z,73.89
2022-10-15T21:22:22.473Z,74.43
2022-10-15T21:24:51.454Z,74.46
2022-10-15T21:27:20.549Z,74.75
2022-10-15T21:29:50.467Z,74.91
2022-10-15T21:32:19.598Z,74.26
2022-10-15T21:34:48.601Z,74.63
2022-10-15T21:37:17.890Z,74.38
2022-10-15T21:39:46.771Z,74.78
2022-10-15T21:42:16.162Z,73.53
2022-10-15T21:44:47.847Z,73.14
2022-10-15T21:47:17.524Z,73.13
2022-10-15T21:49:46.853Z,73.04
2022-10-15T21:52:16.197Z,73.00
2022-10-15T21:54:45.190Z,72.82
2022-10-15T21:57:14.275Z,72.71
2022-10-15T21:59:43.114Z,72.29
2022-10-15T22:02:12.760Z,73.42
2022-10-15T22:04:41.895Z,73.35
2022-10-15T22:07:12.304Z,73.32
2022-10-15T22:09:41.656Z,72.81
2022-10-15T22:12:10.583Z,72.60
2022-10-15T22:14:39.713Z,74.10
2022-10-15T22:17:08.792Z,74.01
2022-10-15T22:19:37.911Z,73.40
2022-10-15T22:22:06.766Z,73.68
2022-10-15T22:24:36.421Z,72.88
2022-10-15T22:27:05.609Z,73.16
2022-10-15T22:29:35.971Z,73.55
2022-10-15T22:32:05.040Z,73.35
2022-10-15T22:34:35.882Z,73.83
2022-10-15T22:37:05.379Z,74.29
2022-10-15T22:39:34.238Z,75.23
2022-10-15T22:42:03.814Z,74.80
2022-10-15T22:44:32.903Z,75.84
2022-10-15T22:47:02.238Z,75.97
2022-10-15T22:49:31.225Z,76.08
2022-10-15T22:52:00.394Z,76.12
2022-10-15T22:54:29.261Z,75.50
2022-10-15T22:56:58.524Z,75.75
2022-10-15T22:59:27.541Z,75.98
2022-10-15T23:01:56.579Z,75.88
2022-10-15T23:04:25.799Z,76.25
2022-10-15T23:06:55.028Z,76.33
2022-10-15T23:09:23.893Z,76.20
2022-10-15T23:11:53.017Z,76.02
2022-10-15T23:14:22.103Z,77.28
2022-10-15T23:16:51.378Z,77.27
2022-10-15T23:19:22.659Z,77.43
2022-10-15T23:21:54.077Z,77.30
2022-10-15T23:24:26.027Z,76.85
2022-10-15T23:26:55.286Z,76.38
2022-10-15T23:29:26.483Z,76.54
2022-10-15T23:31:56.184Z,76.79
2022-10-15T23:34:27.403Z,76.69
2022-10-15T23:36:56.514Z,77.31
2022-10-15T23:39:27.339Z,77.54
2022-10-15T23:41:57.081Z,77.60
2022-10-15T23:44:26.571Z,77.88
2022-10-15T23:46:56.320Z,77.63
2022-10-15T23:49:25.203Z,77.16
2022-10-15T23:51:54.357Z,77.54
2022-10-15T23:54:23.842Z,77.89
2022-10-15T23:56:53.153Z,77.76
2022-10-15T23:59:22.361Z,77.47
